»·PEaware :: N877MS KSDM-F70

N877MS :: KSDM-F70

FLIGHT INFORMATION

Flight Status: Arrived
Operator: Privately registered:
United States
More flights under this callsign
Pilot: Rod T. (6553)
Aircraft: CIRRUS SR-22 TURBO
(S22T)
More flights by this aircraft type
Origin: KSDM Brown Mun
United States
Destination: F70 French Valley
United States
More flights between these airports :: More routes between these airports
Route: OCN V23 DANAH V363 POXKU V8 PDZ PDZ092/15 JESEX
File this flight plan on PilotEdge
Remarks: TEC Route SANP29
Altitude:
(Current/Filed)
6,000ft
Speed:
(Current/Filed)
180kts
Departed: 19-Nov-19 08:03 PM
Arrived: 19-Nov-19 08:45 PM
Distance/Time
Traveled:
61nm/0:42
Distance/Time
To Go:
Arrived

Flight Plot

Page will automatically refresh every two minutes.

Flight plan parsing failed; only flown route is shown


Map Options




Map Legend


Flown Route
Filed Route
Departure Airport
Arrival Airport
Navaid (VOR, NDB)
Fix

Horizontal Profiles

Position Reports

Time Latitude Longitude Heading Altitude Ground
Speed
19-Nov-19 19:46 32.570612 -116.984990 282 517ft 0kts
19-Nov-19 19:47 32.570612 -116.984990 282 517ft 0kts
19-Nov-19 19:48 32.570612 -116.984990 282 517ft 0kts
19-Nov-19 19:50 32.570612 -116.984990 282 517ft 0kts
19-Nov-19 19:51 32.570612 -116.984990 282 517ft 0kts
19-Nov-19 19:52 32.570612 -116.984990 282 517ft 0kts
19-Nov-19 19:53 32.570612 -116.984990 282 517ft 0kts
19-Nov-19 19:54 32.570612 -116.984990 282 517ft 0kts
19-Nov-19 19:55 32.570612 -116.984990 282 517ft 0kts
19-Nov-19 19:56 32.570612 -116.984990 282 517ft 0kts
19-Nov-19 19:57 32.570612 -116.984990 282 517ft 0kts
19-Nov-19 19:58 32.570612 -116.984990 282 517ft 0kts
19-Nov-19 19:59 32.570843 -116.985005 53 517ft 0kts
19-Nov-19 20:00 32.570577 -116.983359 94 515ft 24kts
19-Nov-19 20:01 32.569849 -116.974627 96 507ft 27kts
19-Nov-19 20:02 32.570863 -116.968303 7 506ft 1kts
19-Nov-19 20:03 32.573058 -116.982112 276 849ft 100kts
19-Nov-19 20:04 32.585691 -117.017077 291 2119ft 125kts
19-Nov-19 20:05 32.598126 -117.051115 291 3372ft 130kts
19-Nov-19 20:06 32.613222 -117.090899 291 4775ft 133kts
19-Nov-19 20:07 32.628777 -117.130334 291 5980ft 146kts
19-Nov-19 20:08 32.646888 -117.178491 291 5974ft 169kts
19-Nov-19 20:09 32.681875 -117.213411 342 5973ft 182kts
19-Nov-19 20:09 32.722495 -117.227321 339 5972ft 183kts
19-Nov-19 20:10 32.771182 -117.244951 339 5972ft 183kts
19-Nov-19 20:12 32.827835 -117.265539 339 5972ft 183kts
19-Nov-19 20:12 32.868519 -117.280342 339 5973ft 183kts
19-Nov-19 20:13 32.917269 -117.298099 339 5973ft 183kts
19-Nov-19 20:15 32.973117 -117.317989 352 5968ft 185kts
19-Nov-19 20:15 33.013870 -117.307875 10 5955ft 189kts
19-Nov-19 20:16 33.064864 -117.293813 10 5973ft 187kts
19-Nov-19 20:17 33.115690 -117.279749 10 5972ft 188kts
19-Nov-19 20:18 33.166496 -117.265665 10 5972ft 188kts
19-Nov-19 20:19 33.216655 -117.251738 10 5972ft 188kts
19-Nov-19 20:20 33.267485 -117.237601 10 5972ft 188kts
19-Nov-19 20:21 33.318451 -117.223402 10 5972ft 188kts
19-Nov-19 20:22 33.369339 -117.209181 10 5972ft 188kts
19-Nov-19 20:23 33.419628 -117.195120 10 5973ft 188kts
19-Nov-19 20:24 33.471858 -117.177502 13 5495ft 201kts
19-Nov-19 20:25 33.525889 -117.159915 14 4996ft 201kts
19-Nov-19 20:26 33.578225 -117.142673 14 4572ft 194kts
19-Nov-19 20:27 33.628222 -117.126798 15 4571ft 183kts
19-Nov-19 20:28 33.676843 -117.110344 14 4571ft 181kts
19-Nov-19 20:29 33.725328 -117.094209 14 4571ft 180kts
19-Nov-19 20:30 33.773625 -117.078119 14 4571ft 180kts
19-Nov-19 20:31 33.822156 -117.062774 10 4571ft 182kts
19-Nov-19 20:32 33.871879 -117.049747 11 4572ft 184kts
19-Nov-19 20:33 33.911277 -117.061250 270 4571ft 156kts
19-Nov-19 20:34 33.879170 -117.070963 149 4573ft 156kts
19-Nov-19 20:35 33.839892 -117.058249 192 4572ft 150kts
19-Nov-19 20:36 33.799464 -117.068445 193 4521ft 151kts
19-Nov-19 20:37 33.755852 -117.080016 193 4059ft 167kts
19-Nov-19 20:38 33.714804 -117.090620 193 3672ft 127kts
19-Nov-19 20:39 33.684501 -117.098817 196 3365ft 96kts
19-Nov-19 20:40 33.656031 -117.106529 194 2849ft 111kts
19-Nov-19 20:41 33.625771 -117.114518 194 2248ft 109kts
19-Nov-19 20:42 33.597461 -117.122181 199 1681ft 89kts
19-Nov-19 20:43 33.577348 -117.127656 192 1344ft 47kts
19-Nov-19 20:44 33.574251 -117.130054 84 1336ft 11kts

Navigation Log

Ident Type
Flight plan parsing failed, navigation log unavailable